Terminal Aerodrome Forecast
Issued by NWS

Home | Current Version | Previous Version | Text Only | Print | Product List | Glossary Off
Versions: 1 2 3 4 5 6 7 8 9 10 11 12 13 14 15 16 17 18 19 20 21 22 23 24 25 26 27 28

078
FTUS43 KICT 211720
TAFCNU
TAF
KCNU 211720Z 2118/2218 03009KT P6SM BKN030
      TEMPO 2118/2122 SCT030 BKN035
     FM212200 04007KT P6SM SCT040
     FM220000 08003KT P6SM FEW040 SCT250
     FM221500 13007KT P6SM SCT040 BKN100=

USA.gov is the U.S. government's official web portal to all federal, state and local government web resources and services.